createdAt,value
2018-01-23T00:00:06.161Z,3.00
2018-01-23T00:01:08.237Z,3.00
2018-01-23T00:02:08.372Z,3.00
2018-01-23T00:03:11.005Z,3.00
2018-01-23T00:04:10.456Z,3.00
2018-01-23T00:05:05.604Z,3.00
2018-01-23T00:06:05.811Z,3.00
2018-01-23T00:07:07.987Z,2.90
2018-01-23T00:08:10.896Z,3.00
2018-01-23T00:09:06.211Z,3.00
2018-01-23T00:10:06.184Z,3.00
2018-01-23T00:11:05.851Z,2.90
2018-01-23T00:12:05.572Z,2.90
2018-01-23T00:13:10.493Z,2.90
2018-01-23T00:14:06.031Z,2.90
2018-01-23T00:15:10.260Z,2.90
2018-01-23T00:16:08.270Z,2.90
2018-01-23T00:17:08.314Z,2.90
2018-01-23T00:18:05.907Z,2.90
2018-01-23T00:19:06.163Z,2.90
2018-01-23T00:20:08.012Z,2.90
2018-01-23T00:21:05.347Z,2.90
2018-01-23T00:22:05.776Z,2.90
2018-01-23T00:23:05.617Z,3.00
2018-01-23T00:24:05.777Z,3.00
2018-01-23T00:25:05.868Z,3.00
2018-01-23T00:26:07.883Z,3.00
2018-01-23T00:27:06.122Z,2.90
2018-01-23T00:28:11.110Z,3.00
2018-01-23T00:29:05.525Z,3.00
2018-01-23T00:30:10.829Z,3.00
2018-01-23T00:31:08.427Z,3.00
2018-01-23T00:32:08.568Z,3.00
2018-01-23T00:33:05.977Z,3.00
2018-01-23T00:34:05.840Z,3.00
2018-01-23T00:35:05.693Z,3.00
2018-01-23T00:36:05.372Z,3.00
2018-01-23T00:37:06.152Z,3.00
2018-01-23T00:38:05.266Z,3.00
2018-01-23T00:39:10.372Z,3.00
2018-01-23T00:40:10.551Z,3.00
2018-01-23T00:41:06.053Z,3.00
2018-01-23T00:42:05.871Z,3.00
2018-01-23T00:43:05.560Z,3.00
2018-01-23T00:44:06.123Z,3.00
2018-01-23T00:45:10.342Z,3.00
2018-01-23T00:46:05.891Z,3.00
2018-01-23T00:47:10.542Z,3.00
2018-01-23T00:48:05.745Z,3.00
2018-01-23T00:49:05.475Z,3.00
2018-01-23T00:50:10.426Z,3.00
2018-01-23T00:51:05.698Z,3.00
2018-01-23T00:52:05.782Z,3.00
2018-01-23T00:53:08.944Z,3.00
2018-01-23T00:54:05.342Z,3.00
2018-01-23T00:55:05.289Z,3.00
2018-01-23T00:56:05.409Z,3.00
2018-01-23T00:57:05.499Z,3.00
2018-01-23T00:58:05.399Z,3.00
2018-01-23T00:59:06.019Z,3.00
2018-01-23T01:00:08.408Z,3.00
2018-01-23T01:01:05.744Z,3.00
2018-01-23T01:02:07.892Z,3.00
2018-01-23T01:03:08.986Z,3.00
2018-01-23T01:04:05.574Z,3.00
2018-01-23T01:05:05.107Z,3.00
2018-01-23T01:06:10.995Z,3.00
2018-01-23T01:07:08.407Z,3.00
2018-01-23T01:08:05.951Z,3.00
2018-01-23T01:09:05.809Z,3.00
2018-01-23T01:10:05.750Z,3.00
2018-01-23T01:11:05.336Z,3.00
2018-01-23T01:12:11.147Z,3.00
2018-01-23T01:13:05.506Z,3.00
2018-01-23T01:14:08.032Z,3.00
2018-01-23T01:15:10.476Z,3.00
2018-01-23T01:16:05.800Z,3.00
2018-01-23T01:17:05.785Z,3.00
2018-01-23T01:18:05.686Z,3.00
2018-01-23T01:19:05.717Z,3.00
2018-01-23T01:20:07.811Z,3.00
2018-01-23T01:21:05.363Z,3.00
2018-01-23T01:22:05.157Z,3.00
2018-01-23T01:23:09.877Z,3.00
2018-01-23T01:24:05.530Z,3.10
2018-01-23T01:25:08.587Z,3.00
2018-01-23T01:26:06.400Z,3.00
2018-01-23T01:27:06.098Z,3.10
2018-01-23T01:28:10.783Z,3.00
2018-01-23T01:29:05.159Z,3.00
2018-01-23T01:30:05.840Z,3.00
2018-01-23T01:31:07.875Z,3.00
2018-01-23T01:32:10.457Z,3.00
2018-01-23T01:33:05.807Z,3.00
2018-01-23T01:34:05.738Z,3.00
2018-01-23T01:35:05.670Z,3.00
2018-01-23T01:36:05.315Z,3.00
2018-01-23T01:37:06.061Z,3.00
2018-01-23T01:38:06.008Z,3.00
2018-01-23T01:39:09.344Z,3.00
2018-01-23T01:40:06.006Z,3.00
2018-01-23T01:41:05.529Z,3.00
2018-01-23T01:42:10.312Z,3.00
2018-01-23T01:43:05.439Z,3.00
2018-01-23T01:44:05.532Z,3.00
2018-01-23T01:45:11.234Z,3.00
2018-01-23T01:46:05.694Z,3.00
2018-01-23T01:47:06.131Z,3.00
2018-01-23T01:48:10.807Z,3.00
2018-01-23T01:49:10.337Z,3.00
2018-01-23T01:50:05.549Z,3.00
2018-01-23T01:51:05.451Z,3.00
2018-01-23T01:52:05.249Z,3.00
2018-01-23T01:53:10.333Z,3.00
2018-01-23T01:54:10.763Z,3.00
2018-01-23T01:55:07.960Z,3.00
2018-01-23T01:56:05.776Z,3.00
2018-01-23T01:57:10.901Z,3.00
2018-01-23T01:58:09.551Z,3.00
2018-01-23T01:59:06.163Z,3.00
2018-01-23T02:00:08.039Z,3.00
2018-01-23T02:01:05.434Z,3.00
2018-01-23T02:02:10.624Z,3.00
2018-01-23T02:03:05.973Z,3.00
2018-01-23T02:04:08.329Z,3.00
2018-01-23T02:05:05.799Z,3.00
2018-01-23T02:06:05.684Z,3.00
2018-01-23T02:07:10.763Z,3.00
2018-01-23T02:08:05.366Z,3.00
2018-01-23T02:09:08.487Z,3.00
2018-01-23T02:10:13.609Z,3.00
2018-01-23T02:11:10.983Z,3.00
2018-01-23T02:12:06.399Z,3.00
2018-01-23T02:13:13.043Z,3.00
2018-01-23T02:14:05.502Z,3.00
2018-01-23T02:15:05.514Z,3.00
2018-01-23T02:16:05.234Z,3.00
2018-01-23T02:17:06.194Z,3.00
2018-01-23T02:18:05.307Z,3.00
2018-01-23T02:19:06.149Z,3.00
2018-01-23T02:20:10.444Z,3.00
2018-01-23T02:21:05.847Z,3.00
2018-01-23T02:22:06.494Z,3.00
2018-01-23T02:23:10.832Z,3.00
2018-01-23T02:24:06.003Z,3.00
2018-01-23T02:25:05.905Z,3.00
2018-01-23T02:26:05.576Z,3.00
2018-01-23T02:27:06.004Z,3.00
2018-01-23T02:28:05.240Z,3.00
2018-01-23T02:29:06.243Z,3.00
2018-01-23T02:30:10.915Z,3.00
2018-01-23T02:31:10.483Z,3.00
2018-01-23T02:32:05.824Z,3.00
2018-01-23T02:33:05.786Z,3.00
2018-01-23T02:34:05.770Z,3.00
2018-01-23T02:35:05.459Z,3.00
2018-01-23T02:36:10.502Z,3.00
2018-01-23T02:37:11.108Z,3.00
2018-01-23T02:38:05.648Z,3.00
2018-01-23T02:39:05.368Z,3.00
2018-01-23T02:40:05.504Z,3.00
2018-01-23T02:41:08.027Z,3.00
2018-01-23T02:42:05.739Z,3.00
2018-01-23T02:43:06.045Z,3.00
2018-01-23T02:44:09.529Z,3.00
2018-01-23T02:45:08.120Z,3.00
2018-01-23T02:46:08.165Z,3.00
2018-01-23T02:47:05.502Z,3.00
2018-01-23T02:48:08.423Z,3.10
2018-01-23T02:49:05.989Z,3.00
2018-01-23T02:50:05.794Z,3.00
2018-01-23T02:51:05.718Z,3.00
2018-01-23T02:52:10.297Z,3.10
2018-01-23T02:53:05.541Z,3.10
2018-01-23T02:54:08.353Z,3.10
2018-01-23T02:55:08.912Z,3.00
2018-01-23T02:56:05.365Z,3.00
2018-01-23T02:57:06.297Z,3.10
2018-01-23T02:58:10.394Z,3.10
2018-01-23T02:59:09.834Z,3.10
2018-01-23T03:00:15.512Z,3.10
2018-01-23T03:01:09.047Z,3.10
2018-01-23T03:02:05.426Z,3.10
2018-01-23T03:03:07.978Z,3.10
2018-01-23T03:04:08.029Z,3.10
2018-01-23T03:05:05.175Z,3.10
2018-01-23T03:06:05.920Z,3.10
2018-01-23T03:07:05.780Z,3.00
2018-01-23T03:08:05.558Z,3.10
2018-01-23T03:09:10.940Z,3.10
2018-01-23T03:10:08.093Z,3.10
2018-01-23T03:11:05.707Z,3.10
2018-01-23T03:12:05.902Z,3.10
2018-01-23T03:13:06.034Z,3.10
2018-01-23T03:14:11.104Z,3.10
2018-01-23T03:15:05.744Z,3.10
2018-01-23T03:16:10.373Z,3.00
2018-01-23T03:17:05.834Z,3.10
2018-01-23T03:18:08.084Z,3.10
2018-01-23T03:19:08.776Z,3.10
2018-01-23T03:20:05.212Z,3.10
2018-01-23T03:21:05.246Z,3.10
2018-01-23T03:22:08.619Z,3.10
2018-01-23T03:23:08.875Z,3.10
2018-01-23T03:24:05.362Z,3.00
2018-01-23T03:25:08.506Z,3.10
2018-01-23T03:26:05.878Z,3.10
2018-01-23T03:27:10.866Z,3.10
2018-01-23T03:28:10.435Z,3.00
2018-01-23T03:29:05.796Z,3.10
2018-01-23T03:30:08.484Z,3.10
2018-01-23T03:31:06.008Z,3.10
2018-01-23T03:32:09.204Z,3.10
2018-01-23T03:33:05.588Z,3.10
2018-01-23T03:34:05.434Z,3.10
2018-01-23T03:35:10.386Z,3.10
2018-01-23T03:36:05.763Z,3.10
2018-01-23T03:37:08.173Z,3.10
2018-01-23T03:38:05.932Z,3.10
2018-01-23T03:39:09.381Z,3.10
2018-01-23T03:40:10.900Z,3.10
2018-01-23T03:41:08.387Z,3.10
2018-01-23T03:42:06.250Z,3.10
2018-01-23T03:43:11.071Z,3.10
2018-01-23T03:44:05.580Z,3.10
2018-01-23T03:45:05.683Z,3.10
2018-01-23T03:46:11.385Z,3.10
2018-01-23T03:47:05.778Z,3.10
2018-01-23T03:48:05.984Z,3.00
2018-01-23T03:49:10.828Z,3.10
2018-01-23T03:50:06.184Z,3.10
2018-01-23T03:51:05.955Z,3.10
2018-01-23T03:52:05.474Z,3.10
2018-01-23T03:53:05.945Z,3.10
2018-01-23T03:54:05.606Z,3.10
2018-01-23T03:55:05.702Z,3.10
2018-01-23T03:56:08.144Z,3.10
2018-01-23T03:57:10.827Z,3.10
2018-01-23T03:58:05.216Z,3.10
2018-01-23T03:59:06.120Z,3.10
2018-01-23T04:00:08.280Z,3.10
2018-01-23T04:01:05.820Z,3.10
2018-01-23T04:02:05.659Z,3.10
2018-01-23T04:03:05.985Z,2.90
2018-01-23T04:04:05.683Z,3.00
2018-01-23T04:05:05.559Z,3.10
2018-01-23T04:06:05.301Z,3.10
2018-01-23T04:07:06.034Z,3.10
2018-01-23T04:08:05.629Z,3.00
2018-01-23T04:09:11.094Z,3.10
2018-01-23T04:10:05.537Z,3.00
2018-01-23T04:11:13.630Z,3.00
2018-01-23T04:12:11.152Z,3.00
2018-01-23T04:13:05.660Z,3.00
2018-01-23T04:14:06.105Z,3.00
2018-01-23T04:15:08.368Z,3.00
2018-01-23T04:16:05.994Z,3.00
2018-01-23T04:17:05.376Z,3.00
2018-01-23T04:18:05.415Z,3.00
2018-01-23T04:19:05.263Z,3.00
2018-01-23T04:20:05.383Z,3.00
2018-01-23T04:21:07.845Z,3.00
2018-01-23T04:22:08.036Z,3.10
2018-01-23T04:23:05.647Z,3.00
2018-01-23T04:24:05.117Z,3.00
2018-01-23T04:25:06.162Z,3.00
2018-01-23T04:26:10.690Z,3.00
2018-01-23T04:27:06.121Z,3.00
2018-01-23T04:28:09.399Z,3.00
2018-01-23T04:29:06.251Z,3.00
2018-01-23T04:30:08.374Z,3.00
2018-01-23T04:31:05.804Z,3.00
2018-01-23T04:32:06.048Z,3.00
2018-01-23T04:33:05.906Z,3.00
2018-01-23T04:34:08.726Z,3.00
2018-01-23T04:35:05.160Z,3.00
2018-01-23T04:36:07.968Z,3.00
2018-01-23T04:37:10.507Z,3.00
2018-01-23T04:38:08.960Z,3.00
2018-01-23T04:39:05.536Z,3.00
2018-01-23T04:40:10.654Z,3.00
2018-01-23T04:41:09.369Z,3.00
2018-01-23T04:42:05.880Z,3.00
2018-01-23T04:43:05.658Z,3.00
2018-01-23T04:44:05.342Z,3.00
2018-01-23T04:45:05.292Z,3.00
2018-01-23T04:46:05.310Z,3.00
2018-01-23T04:47:06.211Z,3.00
2018-01-23T04:48:09.192Z,3.00
2018-01-23T04:49:06.544Z,3.00
2018-01-23T04:50:08.376Z,3.00
2018-01-23T04:51:05.782Z,3.00
2018-01-23T04:52:05.944Z,3.00
2018-01-23T04:53:05.697Z,3.00
2018-01-23T04:54:05.629Z,3.00
2018-01-23T04:55:05.788Z,3.00
2018-01-23T04:56:05.780Z,2.90
2018-01-23T04:57:05.578Z,3.00
2018-01-23T04:58:08.710Z,3.00
2018-01-23T04:59:07.663Z,2.90
2018-01-23T05:00:05.557Z,2.90
2018-01-23T05:01:08.024Z,2.90
2018-01-23T05:02:11.191Z,2.90
2018-01-23T05:03:05.839Z,2.90
2018-01-23T05:04:05.486Z,2.90
2018-01-23T05:05:05.277Z,2.90
2018-01-23T05:06:06.433Z,2.90
2018-01-23T05:07:08.665Z,2.90
2018-01-23T05:08:10.499Z,2.90
2018-01-23T05:09:06.001Z,2.90
2018-01-23T05:10:05.868Z,2.90
2018-01-23T05:11:05.940Z,2.90
2018-01-23T05:12:05.422Z,2.90
2018-01-23T05:13:07.955Z,2.90
2018-01-23T05:14:12.987Z,2.90
2018-01-23T05:15:05.514Z,2.90
2018-01-23T05:16:09.363Z,2.90
2018-01-23T05:17:13.502Z,2.90
2018-01-23T05:18:05.937Z,2.90
2018-01-23T05:19:05.997Z,2.90
2018-01-23T05:20:05.970Z,2.90
2018-01-23T05:21:05.637Z,2.90
2018-01-23T05:22:05.426Z,2.80
2018-01-23T05:23:06.232Z,2.90
2018-01-23T05:24:10.726Z,2.80
2018-01-23T05:25:06.552Z,2.80
2018-01-23T05:26:05.289Z,2.90
2018-01-23T05:27:05.450Z,2.80
2018-01-23T05:28:06.187Z,2.80
2018-01-23T05:29:10.827Z,2.80
2018-01-23T05:30:05.400Z,2.80
2018-01-23T05:31:11.028Z,2.80
2018-01-23T05:32:10.645Z,2.80
2018-01-23T05:33:06.236Z,2.80
2018-01-23T05:34:06.322Z,2.80
2018-01-23T05:35:05.800Z,2.80
2018-01-23T05:36:05.545Z,2.80
2018-01-23T05:37:05.381Z,2.80
2018-01-23T05:38:05.469Z,2.90
2018-01-23T05:39:10.415Z,2.90
2018-01-23T05:40:10.921Z,2.90
2018-01-23T05:41:05.440Z,2.90
2018-01-23T05:42:13.718Z,2.90
2018-01-23T05:43:11.399Z,2.90
2018-01-23T05:44:05.814Z,2.90
2018-01-23T05:45:05.746Z,2.90
2018-01-23T05:46:05.464Z,2.90
2018-01-23T05:47:06.316Z,2.90
2018-01-23T05:48:07.764Z,2.90
2018-01-23T05:49:05.325Z,2.80
2018-01-23T05:50:06.147Z,2.90
2018-01-23T05:51:10.795Z,2.90
2018-01-23T05:52:05.442Z,2.90
2018-01-23T05:53:08.793Z,2.90
2018-01-23T05:54:05.493Z,2.90
2018-01-23T05:55:06.023Z,2.90
2018-01-23T05:56:11.175Z,2.90
2018-01-23T05:57:05.362Z,2.90
2018-01-23T05:58:10.853Z,2.90
2018-01-23T05:59:07.852Z,2.90
2018-01-23T06:00:05.291Z,2.90
2018-01-23T06:01:05.395Z,2.90
2018-01-23T06:02:06.372Z,3.00
2018-01-23T06:03:05.933Z,2.90
2018-01-23T06:04:05.702Z,2.90
2018-01-23T06:05:08.833Z,2.90
2018-01-23T06:06:05.490Z,2.90
2018-01-23T06:07:05.328Z,2.90
2018-01-23T06:08:05.914Z,2.90
2018-01-23T06:09:10.505Z,2.90
2018-01-23T06:10:10.646Z,2.90
2018-01-23T06:11:11.136Z,3.00
2018-01-23T06:12:05.675Z,2.90
2018-01-23T06:13:05.840Z,3.00
2018-01-23T06:14:08.927Z,2.90
2018-01-23T06:15:05.403Z,3.00
2018-01-23T06:16:05.478Z,3.00
2018-01-23T06:17:06.033Z,3.00
2018-01-23T06:18:08.789Z,3.00
2018-01-23T06:19:10.604Z,3.00
2018-01-23T06:20:06.465Z,3.00
2018-01-23T06:21:05.892Z,3.00
2018-01-23T06:22:05.824Z,3.00
2018-01-23T06:23:06.166Z,2.90
2018-01-23T06:24:05.398Z,3.00
2018-01-23T06:25:06.055Z,3.00
2018-01-23T06:26:06.104Z,2.90
2018-01-23T06:27:09.464Z,3.00
2018-01-23T06:28:06.036Z,3.00
2018-01-23T06:29:05.729Z,2.90
2018-01-23T06:30:05.565Z,2.90
2018-01-23T06:31:05.430Z,2.90
2018-01-23T06:32:05.876Z,2.90
2018-01-23T06:33:06.150Z,2.90
2018-01-23T06:34:11.031Z,2.90
2018-01-23T06:35:08.406Z,2.90
2018-01-23T06:36:11.119Z,2.90
2018-01-23T06:37:08.840Z,2.90
2018-01-23T06:38:05.465Z,2.90
2018-01-23T06:39:06.477Z,2.90
2018-01-23T06:40:05.900Z,2.90
2018-01-23T06:41:05.472Z,2.90
2018-01-23T06:42:05.913Z,2.90
2018-01-23T06:43:05.987Z,2.90
2018-01-23T06:44:10.560Z,2.90
2018-01-23T06:45:10.907Z,2.90
2018-01-23T06:46:11.124Z,2.90
2018-01-23T06:47:05.437Z,2.90
2018-01-23T06:48:05.725Z,2.90
2018-01-23T06:49:08.349Z,2.90
2018-01-23T06:50:05.924Z,2.90
2018-01-23T06:51:10.752Z,2.90
2018-01-23T06:52:05.925Z,2.90
2018-01-23T06:53:10.540Z,2.90
2018-01-23T06:54:08.203Z,2.90
2018-01-23T06:55:12.986Z,2.90
2018-01-23T06:56:05.350Z,2.90
2018-01-23T06:57:09.246Z,2.90
2018-01-23T06:58:05.767Z,2.90
2018-01-23T06:59:06.060Z,2.90
2018-01-23T07:00:05.809Z,2.90
2018-01-23T07:01:05.436Z,2.90
2018-01-23T07:02:06.313Z,2.90
2018-01-23T07:03:08.707Z,2.90
2018-01-23T07:04:05.271Z,2.90
2018-01-23T07:05:05.916Z,2.90
2018-01-23T07:06:06.040Z,2.90
2018-01-23T07:07:10.618Z,2.90
2018-01-23T07:08:06.196Z,2.90
2018-01-23T07:09:09.183Z,2.90
2018-01-23T07:10:08.371Z,2.90
2018-01-23T07:11:05.969Z,2.90
2018-01-23T07:12:10.674Z,2.90
2018-01-23T07:13:09.080Z,2.90
2018-01-23T07:14:05.595Z,2.90
2018-01-23T07:15:08.375Z,2.90
2018-01-23T07:16:05.895Z,2.90
2018-01-23T07:17:08.174Z,2.90
2018-01-23T07:18:05.777Z,2.90
2018-01-23T07:19:08.707Z,2.90
2018-01-23T07:20:05.280Z,2.90
2018-01-23T07:21:11.155Z,2.90
2018-01-23T07:22:05.471Z,2.90
2018-01-23T07:23:06.202Z,2.90
2018-01-23T07:24:05.997Z,2.90
2018-01-23T07:25:05.256Z,2.90
2018-01-23T07:26:05.364Z,2.90
2018-01-23T07:27:08.345Z,2.90
2018-01-23T07:28:10.944Z,2.90
2018-01-23T07:29:11.304Z,2.90
2018-01-23T07:30:08.253Z,2.90
2018-01-23T07:31:14.335Z,2.90
2018-01-23T07:32:05.778Z,3.00
2018-01-23T07:33:05.818Z,2.90
2018-01-23T07:34:08.587Z,2.90
2018-01-23T07:35:06.213Z,3.00
2018-01-23T07:36:05.776Z,2.90
2018-01-23T07:37:08.312Z,2.90
2018-01-23T07:38:10.826Z,2.90
2018-01-23T07:39:05.192Z,3.00
2018-01-23T07:40:05.196Z,3.00
2018-01-23T07:41:06.219Z,2.90
2018-01-23T07:42:10.621Z,2.90
2018-01-23T07:43:06.495Z,3.00
2018-01-23T07:44:10.552Z,2.90
2018-01-23T07:45:06.014Z,3.00
2018-01-23T07:46:06.049Z,3.00
2018-01-23T07:47:05.443Z,3.00
2018-01-23T07:48:05.223Z,3.00
2018-01-23T07:49:06.184Z,3.00
2018-01-23T07:50:05.619Z,3.00
2018-01-23T07:51:10.282Z,3.00
2018-01-23T07:52:05.526Z,3.00
2018-01-23T07:53:05.573Z,3.00
2018-01-23T07:54:05.768Z,3.00
2018-01-23T07:55:05.778Z,3.00
2018-01-23T07:56:05.263Z,3.00
2018-01-23T07:57:06.075Z,3.00
2018-01-23T07:58:11.126Z,3.00
2018-01-23T07:59:06.014Z,3.00
2018-01-23T08:00:08.252Z,3.00
2018-01-23T08:01:05.694Z,3.00
2018-01-23T08:02:05.577Z,3.00
2018-01-23T08:03:08.476Z,3.00
2018-01-23T08:04:06.074Z,3.10
2018-01-23T08:05:05.925Z,3.10
2018-01-23T08:06:06.069Z,3.10
2018-01-23T08:07:08.135Z,3.10
2018-01-23T08:08:10.921Z,3.10
2018-01-23T08:09:08.130Z,3.10
2018-01-23T08:10:08.228Z,3.10
2018-01-23T08:11:05.572Z,3.10
2018-01-23T08:12:10.365Z,3.10
2018-01-23T08:13:05.860Z,3.10
2018-01-23T08:14:08.271Z,3.20
2018-01-23T08:15:05.887Z,3.20
2018-01-23T08:16:05.508Z,3.20
2018-01-23T08:17:05.917Z,3.20
2018-01-23T08:18:10.238Z,3.20
2018-01-23T08:19:05.430Z,3.20
2018-01-23T08:20:07.934Z,3.20
2018-01-23T08:21:07.949Z,3.20
2018-01-23T08:22:05.752Z,3.20
2018-01-23T08:23:12.786Z,3.30
2018-01-23T08:24:05.335Z,3.30
2018-01-23T08:25:07.721Z,3.30
2018-01-23T08:26:08.282Z,3.30
2018-01-23T08:27:05.780Z,3.30
2018-01-23T08:28:05.418Z,3.30
2018-01-23T08:29:08.616Z,3.30
2018-01-23T08:30:08.108Z,3.40
2018-01-23T08:31:10.619Z,3.40
2018-01-23T08:32:06.072Z,3.40
2018-01-23T08:33:05.472Z,3.40
2018-01-23T08:34:06.133Z,3.40
2018-01-23T08:35:08.803Z,3.50
2018-01-23T08:36:07.960Z,3.50
2018-01-23T08:37:08.708Z,3.50
2018-01-23T08:38:05.485Z,3.50
2018-01-23T08:39:05.697Z,3.50
2018-01-23T08:40:13.775Z,3.50
2018-01-23T08:41:07.759Z,3.50
2018-01-23T08:42:05.264Z,3.50
2018-01-23T08:43:12.977Z,3.60
2018-01-23T08:44:05.507Z,3.50
2018-01-23T08:45:11.344Z,3.60
2018-01-23T08:46:08.588Z,3.60
2018-01-23T08:47:10.515Z,3.60
2018-01-23T08:48:06.050Z,3.60
2018-01-23T08:49:06.112Z,3.60
2018-01-23T08:50:06.113Z,3.60
2018-01-23T08:51:08.528Z,3.70
2018-01-23T08:52:05.944Z,3.60
2018-01-23T08:53:11.052Z,3.70
2018-01-23T08:54:08.969Z,3.70
2018-01-23T08:55:05.437Z,3.30
2018-01-23T08:56:08.037Z,3.70
2018-01-23T08:57:08.812Z,3.70
2018-01-23T08:58:05.658Z,3.70
2018-01-23T08:59:05.189Z,3.70
2018-01-23T09:00:05.979Z,3.70
2018-01-23T09:01:06.002Z,3.70
2018-01-23T09:02:05.644Z,3.70
2018-01-23T09:03:06.161Z,3.80
2018-01-23T09:04:07.929Z,3.80
2018-01-23T09:05:05.511Z,3.80
2018-01-23T09:06:09.001Z,3.80
2018-01-23T09:07:10.577Z,3.80
2018-01-23T09:08:06.002Z,3.90
2018-01-23T09:09:05.871Z,3.80
2018-01-23T09:10:05.971Z,3.90
2018-01-23T09:11:05.687Z,3.90
2018-01-23T09:12:05.684Z,3.90
2018-01-23T09:13:05.536Z,3.90
2018-01-23T09:14:05.574Z,4.00
2018-01-23T09:15:05.458Z,4.00
2018-01-23T09:16:10.344Z,4.00
2018-01-23T09:17:08.384Z,4.10
2018-01-23T09:18:05.778Z,4.00
2018-01-23T09:19:05.396Z,4.00
2018-01-23T09:20:06.081Z,4.00
2018-01-23T09:21:05.768Z,4.10
2018-01-23T09:22:10.938Z,4.10
2018-01-23T09:23:10.345Z,4.10
2018-01-23T09:24:05.506Z,4.10
2018-01-23T09:25:05.881Z,4.10
2018-01-23T09:26:10.796Z,4.20
2018-01-23T09:27:06.015Z,4.10
2018-01-23T09:28:10.876Z,4.20
2018-01-23T09:29:08.812Z,4.20
2018-01-23T09:30:05.246Z,4.20
2018-01-23T09:31:05.464Z,4.20
2018-01-23T09:32:08.387Z,4.30
2018-01-23T09:33:10.743Z,4.30
2018-01-23T09:34:06.295Z,4.20
2018-01-23T09:35:10.598Z,4.30
2018-01-23T09:36:09.264Z,4.30
2018-01-23T09:37:09.036Z,4.30
2018-01-23T09:38:05.754Z,4.30
2018-01-23T09:39:08.160Z,4.30
2018-01-23T09:40:08.044Z,4.40
2018-01-23T09:41:13.109Z,4.40
2018-01-23T09:42:08.960Z,4.40
2018-01-23T09:43:08.690Z,4.40
2018-01-23T09:44:06.157Z,4.40
2018-01-23T09:45:05.950Z,4.40
2018-01-23T09:46:05.424Z,4.50
2018-01-23T09:47:08.858Z,4.50
2018-01-23T09:48:05.288Z,4.50
2018-01-23T09:49:05.697Z,4.50
2018-01-23T09:50:10.477Z,4.50
2018-01-23T09:51:05.962Z,4.50
2018-01-23T09:52:05.723Z,4.50
2018-01-23T09:53:05.536Z,4.60
2018-01-23T09:54:08.060Z,4.60
2018-01-23T09:55:05.421Z,4.60
2018-01-23T09:56:05.988Z,4.60
2018-01-23T09:57:10.803Z,4.70
2018-01-23T09:58:08.585Z,4.70
2018-01-23T09:59:06.283Z,4.70
2018-01-23T10:00:05.649Z,4.70
2018-01-23T10:01:05.229Z,4.70
2018-01-23T10:02:05.725Z,4.70
2018-01-23T10:03:10.905Z,4.70
2018-01-23T10:04:09.065Z,4.70
2018-01-23T10:05:10.777Z,4.70
2018-01-23T10:06:05.949Z,4.70
2018-01-23T10:07:05.258Z,4.70
2018-01-23T10:08:11.202Z,4.70
2018-01-23T10:09:05.535Z,4.80
2018-01-23T10:10:05.542Z,4.80
2018-01-23T10:11:05.598Z,4.80
2018-01-23T10:12:10.614Z,4.70
2018-01-23T10:13:05.959Z,4.80
2018-01-23T10:14:05.999Z,4.80
2018-01-23T10:15:11.128Z,4.80
2018-01-23T10:16:05.293Z,4.80
2018-01-23T10:17:05.404Z,4.80
2018-01-23T10:18:10.956Z,4.80
2018-01-23T10:19:05.522Z,4.90
2018-01-23T10:20:08.664Z,4.90
2018-01-23T10:21:05.647Z,4.90
2018-01-23T10:22:05.524Z,4.90
2018-01-23T10:23:06.102Z,4.90
2018-01-23T10:24:06.006Z,4.90
2018-01-23T10:25:06.154Z,5.00
2018-01-23T10:26:10.358Z,5.00
2018-01-23T10:27:05.886Z,5.00
2018-01-23T10:28:05.379Z,5.00
2018-01-23T10:29:05.683Z,5.00
2018-01-23T10:30:11.809Z,5.10
2018-01-23T10:31:10.245Z,5.10
2018-01-23T10:32:10.802Z,5.10
2018-01-23T10:33:05.227Z,5.10
2018-01-23T10:34:05.972Z,5.10
2018-01-23T10:35:10.908Z,5.00
2018-01-23T10:36:05.511Z,5.10
2018-01-23T10:37:05.444Z,5.10
2018-01-23T10:38:05.561Z,5.10
2018-01-23T10:39:07.882Z,5.20
2018-01-23T10:40:05.739Z,5.20
2018-01-23T10:41:05.886Z,5.20
2018-01-23T10:42:06.024Z,5.20
2018-01-23T10:43:13.887Z,5.30
2018-01-23T10:44:05.325Z,5.20
2018-01-23T10:45:10.598Z,5.30
2018-01-23T10:46:06.007Z,5.30
2018-01-23T10:47:11.054Z,5.40
2018-01-23T10:48:05.619Z,5.40
2018-01-23T10:49:05.229Z,5.40
2018-01-23T10:50:05.786Z,5.40
2018-01-23T10:51:08.621Z,5.40
2018-01-23T10:52:06.226Z,5.50
2018-01-23T10:53:05.945Z,5.40
2018-01-23T10:54:06.057Z,5.50
2018-01-23T10:55:08.687Z,5.60
2018-01-23T10:56:08.615Z,5.60
2018-01-23T10:57:08.950Z,5.60
2018-01-23T10:58:05.277Z,5.60
2018-01-23T10:59:05.549Z,5.60
2018-01-23T11:00:05.941Z,5.70
2018-01-23T11:01:05.573Z,5.60
2018-01-23T11:02:08.101Z,5.70
2018-01-23T11:03:08.079Z,5.70
2018-01-23T11:04:05.499Z,5.70
2018-01-23T11:05:11.351Z,5.70
2018-01-23T11:06:05.595Z,5.70
2018-01-23T11:07:05.824Z,5.80
2018-01-23T11:08:05.791Z,5.80
2018-01-23T11:09:05.313Z,5.80
2018-01-23T11:10:05.302Z,5.80
2018-01-23T11:11:10.938Z,5.90
2018-01-23T11:12:06.013Z,5.90
2018-01-23T11:13:08.902Z,5.90
2018-01-23T11:14:10.397Z,5.90
2018-01-23T11:15:05.616Z,6.00
2018-01-23T11:16:08.290Z,6.00
2018-01-23T11:17:08.284Z,6.00
2018-01-23T11:18:09.248Z,6.00
2018-01-23T11:19:10.972Z,6.00
2018-01-23T11:20:05.506Z,6.00
2018-01-23T11:21:10.442Z,6.00
2018-01-23T11:22:05.805Z,6.00
2018-01-23T11:23:08.792Z,6.00
2018-01-23T11:24:05.314Z,6.00
2018-01-23T11:25:06.103Z,6.10
2018-01-23T11:26:05.787Z,6.00
2018-01-23T11:27:10.778Z,6.10
2018-01-23T11:28:10.893Z,6.00
2018-01-23T11:29:10.371Z,6.10
2018-01-23T11:30:06.228Z,6.00
2018-01-23T11:31:05.879Z,6.00
2018-01-23T11:32:05.707Z,6.00
2018-01-23T11:33:10.406Z,6.00
2018-01-23T11:34:05.816Z,6.00
2018-01-23T11:35:08.096Z,6.00
2018-01-23T11:36:10.742Z,6.00
2018-01-23T11:37:07.724Z,6.00
2018-01-23T11:38:05.358Z,6.00
2018-01-23T11:39:08.562Z,6.10
2018-01-23T11:40:06.059Z,6.00
2018-01-23T11:41:08.120Z,6.00
2018-01-23T11:42:05.622Z,6.00
2018-01-23T11:43:06.156Z,6.00
2018-01-23T11:44:05.595Z,6.00
2018-01-23T11:45:05.396Z,6.00
2018-01-23T11:46:05.654Z,6.00
2018-01-23T11:47:11.065Z,5.90
2018-01-23T11:48:08.459Z,6.00
2018-01-23T11:49:08.514Z,5.90
2018-01-23T11:50:10.276Z,5.90
2018-01-23T11:51:05.980Z,5.90
2018-01-23T11:52:08.243Z,5.90
2018-01-23T11:53:05.734Z,5.90
2018-01-23T11:54:10.550Z,5.90
2018-01-23T11:55:05.875Z,5.90
2018-01-23T11:56:05.453Z,5.90
2018-01-23T11:57:05.493Z,5.90
2018-01-23T11:58:08.210Z,5.90
2018-01-23T11:59:05.929Z,5.90
2018-01-23T12:00:10.279Z,5.90
2018-01-23T12:01:05.853Z,5.80
2018-01-23T12:02:05.677Z,5.90
2018-01-23T12:03:08.006Z,5.90
2018-01-23T12:04:08.101Z,5.80
2018-01-23T12:05:05.720Z,5.80
2018-01-23T12:06:10.284Z,5.80
2018-01-23T12:07:05.521Z,5.80
2018-01-23T12:08:05.600Z,5.80
2018-01-23T12:09:05.678Z,5.80
2018-01-23T12:10:10.509Z,5.80
2018-01-23T12:11:09.317Z,5.80
2018-01-23T12:12:11.002Z,5.80
2018-01-23T12:13:05.593Z,5.80
2018-01-23T12:14:05.760Z,5.80
2018-01-23T12:15:05.218Z,5.80
2018-01-23T12:16:06.256Z,5.80
2018-01-23T12:17:05.383Z,5.80
2018-01-23T12:18:05.338Z,5.80
2018-01-23T12:19:05.552Z,5.80
2018-01-23T12:20:07.895Z,5.80
2018-01-23T12:21:05.624Z,5.80
2018-01-23T12:22:06.094Z,5.80
2018-01-23T12:23:11.075Z,5.80
2018-01-23T12:24:05.787Z,5.80
2018-01-23T12:25:05.335Z,5.80
2018-01-23T12:26:06.058Z,5.80
2018-01-23T12:27:05.636Z,5.80
2018-01-23T12:28:11.006Z,5.80
2018-01-23T12:29:05.624Z,5.80
2018-01-23T12:30:08.621Z,5.80
2018-01-23T12:31:06.181Z,5.80
2018-01-23T12:32:06.187Z,5.80
2018-01-23T12:33:10.996Z,5.80
2018-01-23T12:34:05.503Z,5.90
2018-01-23T12:35:08.781Z,5.90
2018-01-23T12:36:10.500Z,5.90
2018-01-23T12:37:11.202Z,5.90
2018-01-23T12:38:05.573Z,5.90
2018-01-23T12:39:08.246Z,5.90
2018-01-23T12:40:08.340Z,5.90
2018-01-23T12:41:05.956Z,5.90
2018-01-23T12:42:05.519Z,5.90
2018-01-23T12:43:07.743Z,5.90
2018-01-23T12:44:07.821Z,5.90
2018-01-23T12:45:05.417Z,5.90
2018-01-23T12:46:08.573Z,5.90
2018-01-23T12:47:11.035Z,5.90
2018-01-23T12:48:05.286Z,5.90
2018-01-23T12:49:13.726Z,5.90
2018-01-23T12:50:05.336Z,5.90
2018-01-23T12:51:05.378Z,5.90
2018-01-23T12:52:11.164Z,5.90
2018-01-23T12:53:06.290Z,5.90
2018-01-23T12:54:08.678Z,5.90
2018-01-23T12:55:05.210Z,5.90
2018-01-23T12:56:10.787Z,5.90
2018-01-23T12:57:10.994Z,5.90
2018-01-23T12:58:05.351Z,5.90
2018-01-23T12:59:06.044Z,5.90
2018-01-23T13:00:06.157Z,5.90
2018-01-23T13:01:11.027Z,5.90
2018-01-23T13:02:05.270Z,5.90
2018-01-23T13:03:06.251Z,5.90
2018-01-23T13:04:09.499Z,5.90
2018-01-23T13:05:09.548Z,5.90
2018-01-23T13:06:06.190Z,5.90
2018-01-23T13:07:05.809Z,5.90
2018-01-23T13:08:13.243Z,5.90
2018-01-23T13:09:10.711Z,5.90
2018-01-23T13:10:06.088Z,5.90
2018-01-23T13:11:05.630Z,5.90
2018-01-23T13:12:05.757Z,5.90
2018-01-23T13:13:05.794Z,6.00
2018-01-23T13:14:10.559Z,6.00
2018-01-23T13:15:06.166Z,6.00
2018-01-23T13:16:05.828Z,6.00
2018-01-23T13:17:05.856Z,6.00
2018-01-23T13:18:08.284Z,6.00